createdAt,value
2018-08-23T00:00:05.159Z,91.9
2018-08-23T00:05:05.651Z,92
2018-08-23T00:10:11.001Z,92.2
2018-08-23T00:15:12.908Z,92.3
2018-08-23T00:20:23.585Z,92.5
2018-08-23T00:25:02.873Z,92.5
2018-08-23T00:30:08.315Z,92.7
2018-08-23T00:35:02.615Z,92.7
2018-08-23T00:40:05.979Z,93.2
2018-08-23T00:45:02.698Z,93.2
2018-08-23T00:50:05.535Z,93.3
2018-08-23T00:55:02.564Z,93.3
2018-08-23T01:00:07.976Z,93.4
2018-08-23T01:05:03.228Z,93.4
2018-08-23T01:10:08.085Z,93.9
2018-08-23T01:15:08.522Z,94
2018-08-23T01:20:28.384Z,94.1
2018-08-23T01:25:05.258Z,94.4
2018-08-23T01:30:03.505Z,94.4
2018-08-23T01:35:15.596Z,94.6
2018-08-23T01:40:03.303Z,94.6
2018-08-23T01:45:30.475Z,95.1
2018-08-23T01:50:02.804Z,95.1
2018-08-23T01:55:05.658Z,95.3
2018-08-23T02:00:02.927Z,95.3
2018-08-23T02:05:03.238Z,95.4
2018-08-23T02:10:02.955Z,95.4
2018-08-23T02:15:05.842Z,95.6
2018-08-23T02:20:03.213Z,95.6
2018-08-23T02:25:07.682Z,96
2018-08-23T02:30:02.950Z,96
2018-08-23T02:35:05.820Z,96.2
2018-08-23T02:40:02.985Z,96.2
2018-08-23T02:45:05.770Z,96.7
2018-08-23T02:50:03.074Z,96.7
2018-08-23T02:55:03.474Z,96.8
2018-08-23T03:00:02.862Z,96.8
2018-08-23T03:05:05.656Z,96.9
2018-08-23T03:10:06.017Z,96.9
2018-08-23T03:15:02.801Z,96.9
2018-08-23T03:20:08.214Z,97.2
2018-08-23T03:25:02.603Z,97.2
2018-08-23T03:30:08.041Z,97.3
2018-08-23T03:35:08.402Z,97.3
2018-08-23T03:40:25.884Z,97.4
2018-08-23T03:45:05.720Z,97.5
2018-08-23T03:50:25.818Z,97.3
2018-08-23T03:55:05.674Z,97.6
2018-08-23T04:00:05.520Z,97.3
2018-08-23T04:05:05.876Z,97
2018-08-23T04:10:02.727Z,97
2018-08-23T04:15:05.646Z,97
2018-08-23T04:20:10.663Z,96.7
2018-08-23T04:25:05.933Z,96.8
2018-08-23T04:30:26.024Z,97
2018-08-23T04:35:05.864Z,97
2018-08-23T04:40:10.191Z,97.1
2018-08-23T04:45:02.899Z,97.1
2018-08-23T04:50:03.241Z,97.1
2018-08-23T04:55:12.682Z,97.7
2018-08-23T05:00:05.537Z,97.7
2018-08-23T05:05:03.345Z,97.7
2018-08-23T05:10:08.288Z,97.4
2018-08-23T05:15:10.127Z,97.3
2018-08-23T05:20:03.541Z,97.3
2018-08-23T05:25:02.840Z,97.4
2018-08-23T05:30:03.149Z,97
2018-08-23T05:35:03.436Z,97.2
2018-08-23T05:40:10.764Z,96.9
2018-08-23T05:45:05.973Z,96.7
2018-08-23T05:50:08.412Z,96.6
2018-08-23T05:55:02.588Z,96.6
2018-08-23T06:00:07.927Z,96.3
2018-08-23T06:05:10.795Z,96.3
2018-08-23T06:10:02.703Z,96.3
2018-08-23T06:15:10.978Z,95.1
2018-08-23T06:20:06.070Z,94.2
2018-08-23T06:25:05.456Z,93.6
2018-08-23T06:30:02.847Z,93.6
2018-08-23T06:35:03.189Z,93.1
2018-08-23T06:40:05.562Z,92.6
2018-08-23T06:45:08.439Z,92.5
2018-08-23T06:50:05.247Z,92.1
2018-08-23T06:55:08.122Z,91.6
2018-08-23T07:00:08.549Z,91.7
2018-08-23T07:05:12.999Z,91.9
2018-08-23T07:10:05.332Z,91.7
2018-08-23T07:15:03.166Z,91.7
2018-08-23T07:20:07.712Z,90.2
2018-08-23T07:25:03.313Z,90.2
2018-08-23T07:30:13.128Z,87.9
2018-08-23T07:35:11.066Z,87.6
2018-08-23T07:40:02.932Z,87.6
2018-08-23T07:45:03.528Z,86.6
2018-08-23T07:50:07.948Z,84.6
2018-08-23T07:55:08.274Z,84.4
2018-08-23T08:00:02.611Z,84.1
2018-08-23T08:05:05.501Z,80.4
2018-08-23T08:10:28.661Z,79.2
2018-08-23T08:15:06.041Z,77.7
2018-08-23T08:20:05.182Z,74.6
2018-08-23T08:25:03.005Z,74.6
2018-08-23T08:30:03.422Z,71.4
2018-08-23T08:35:05.250Z,64.4
2018-08-23T08:40:03.154Z,64.3
2018-08-23T08:45:06.012Z,63.4
2018-08-23T08:50:08.450Z,61
2018-08-23T08:55:07.758Z,61.5
2018-08-23T09:00:20.750Z,60.4
2018-08-23T09:05:05.986Z,59.6
2018-08-23T09:10:07.838Z,58
2018-08-23T09:15:05.857Z,56.8
2018-08-23T09:20:08.529Z,56.2
2018-08-23T09:25:02.738Z,56.2
2018-08-23T09:30:03.129Z,55
2018-08-23T09:35:03.592Z,53.8
2018-08-23T09:40:06.010Z,53.5
2018-08-23T09:45:05.389Z,53
2018-08-23T09:50:05.488Z,51.8
2018-08-23T09:55:02.686Z,51.8
2018-08-23T10:00:03.092Z,51.8
2018-08-23T10:05:07.802Z,50.5
2018-08-23T10:10:07.732Z,49.6
2018-08-23T10:15:03.042Z,49.7
2018-08-23T10:20:06.051Z,48.6
2018-08-23T10:25:05.475Z,47.8
2018-08-23T10:30:02.837Z,47.7
2018-08-23T10:35:05.116Z,47
2018-08-23T10:40:05.831Z,47.2
2018-08-23T10:45:05.508Z,46.5
2018-08-23T10:50:10.487Z,46.3
2018-08-23T10:55:05.898Z,45.4
2018-08-23T11:00:13.432Z,45.1
2018-08-23T11:05:02.751Z,45.2
2018-08-23T11:10:02.619Z,44.7
2018-08-23T11:15:05.606Z,42.6
2018-08-23T11:20:05.661Z,41.6
2018-08-23T11:25:02.549Z,41.6
2018-08-23T11:30:03.334Z,40.5
2018-08-23T11:35:21.066Z,42.4
2018-08-23T11:40:03.149Z,42.5
2018-08-23T11:45:03.385Z,41.4
2018-08-23T11:50:02.802Z,40.4
2018-08-23T11:55:03.308Z,40.7
2018-08-23T12:00:25.540Z,39.6
2018-08-23T12:05:02.939Z,39.6
2018-08-23T12:10:02.986Z,39.8
2018-08-23T12:15:03.280Z,40.4
2018-08-23T12:20:07.796Z,40.3
2018-08-23T12:25:10.970Z,38.7
2018-08-23T12:30:02.588Z,38.7
2018-08-23T12:35:10.673Z,38.8
2018-08-23T12:40:02.600Z,38.8
2018-08-23T12:45:03.218Z,37.6
2018-08-23T12:50:02.810Z,38.5
2018-08-23T12:55:03.245Z,37.7
2018-08-23T13:00:07.773Z,38.1
2018-08-23T13:05:02.977Z,38.1
2018-08-23T13:10:03.184Z,38.1
2018-08-23T13:15:07.703Z,38.2
2018-08-23T13:20:05.708Z,36.8
2018-08-23T13:25:02.710Z,36.7
2018-08-23T13:30:05.889Z,36.2
2018-08-23T13:35:05.189Z,35.7
2018-08-23T13:40:05.246Z,36
2018-08-23T13:45:03.152Z,36
2018-08-23T13:50:05.252Z,35.6
2018-08-23T13:55:08.461Z,35.6
2018-08-23T14:00:05.495Z,35.2
2018-08-23T14:05:05.189Z,33.2
2018-08-23T14:10:08.246Z,33.8
2018-08-23T14:15:12.745Z,32.8
2018-08-23T14:20:05.864Z,33.7
2018-08-23T14:25:05.362Z,32.8
2018-08-23T14:30:02.901Z,32.8
2018-08-23T14:35:03.266Z,33.5
2018-08-23T14:40:03.493Z,31.6
2018-08-23T14:45:03.063Z,31
2018-08-23T14:50:03.540Z,31.5
2018-08-23T14:55:05.633Z,30
2018-08-23T15:10:08.343Z,30.5
2018-08-23T15:15:03.458Z,30.5
2018-08-23T15:20:05.148Z,29.7
2018-08-23T15:25:05.640Z,29.8
2018-08-23T15:30:05.133Z,28.4
2018-08-23T15:35:05.577Z,28.2
2018-08-23T15:40:12.973Z,28.6
2018-08-23T15:45:05.806Z,30.1
2018-08-23T15:50:05.879Z,31.5
2018-08-23T15:55:05.611Z,31.1
2018-08-23T16:00:06.011Z,31.8
2018-08-23T16:05:02.942Z,31.7
2018-08-23T16:10:08.097Z,32.1
2018-08-23T16:15:02.552Z,32.2
2018-08-23T16:20:03.123Z,33.1
2018-08-23T16:25:05.304Z,33.4
2018-08-23T16:30:02.770Z,33.4
2018-08-23T16:35:03.230Z,34.1
2018-08-23T16:40:10.819Z,34.1
2018-08-23T16:45:10.204Z,34.7
2018-08-23T16:50:05.174Z,34.7
2018-08-23T16:55:10.699Z,35.6
2018-08-23T17:00:03.093Z,35.7
2018-08-23T17:05:02.668Z,36.1
2018-08-23T17:10:05.181Z,36.3
2018-08-23T17:15:05.757Z,36.9
2018-08-23T17:20:06.028Z,37.3
2018-08-23T17:25:03.434Z,37.3
2018-08-23T17:30:08.006Z,38.3
2018-08-23T17:35:03.374Z,38.4
2018-08-23T17:40:03.275Z,39.6
2018-08-23T17:45:07.828Z,39.4
2018-08-23T17:50:08.440Z,40
2018-08-23T17:55:05.361Z,40.8
2018-08-23T18:00:05.294Z,41.7
2018-08-23T18:05:03.210Z,41.6
2018-08-23T18:10:03.126Z,44
2018-08-23T18:15:06.026Z,45.8
2018-08-23T18:20:03.515Z,45.8
2018-08-23T18:25:18.383Z,51.8
2018-08-23T18:30:02.739Z,51.7
2018-08-23T18:35:22.893Z,54.7
2018-08-23T18:40:05.355Z,58.2
2018-08-23T18:45:03.131Z,58.2
2018-08-23T18:50:13.637Z,66.4
2018-08-23T18:55:05.696Z,65.3
2018-08-23T19:00:03.399Z,65.4
2018-08-23T19:05:05.289Z,73.3
2018-08-23T19:10:05.893Z,68.9
2018-08-23T19:15:05.102Z,67
2018-08-23T19:20:06.040Z,66.4
2018-08-23T19:25:02.934Z,66.3
2018-08-23T19:30:03.268Z,65.1
2018-08-23T19:35:07.922Z,65.8
2018-08-23T19:40:05.247Z,64.5
2018-08-23T19:45:03.205Z,64.5
2018-08-23T19:50:02.838Z,65.1
2018-08-23T19:55:23.423Z,67
2018-08-23T20:00:05.319Z,68
2018-08-23T20:05:05.966Z,68.1
2018-08-23T20:10:05.448Z,69.9
2018-08-23T20:15:03.438Z,69.9
2018-08-23T20:20:07.984Z,70.1
2018-08-23T20:25:10.904Z,70.5
2018-08-23T20:30:03.314Z,70.5
2018-08-23T20:35:10.373Z,71.3
2018-08-23T20:40:08.266Z,71.8
2018-08-23T20:45:02.560Z,71.8
2018-08-23T20:50:13.044Z,71
2018-08-23T20:55:05.787Z,72.1
2018-08-23T21:00:03.451Z,72.1
2018-08-23T21:05:05.864Z,74.4
2018-08-23T21:10:05.365Z,75.2
2018-08-23T21:15:08.114Z,76.1
2018-08-23T21:20:05.049Z,77.2
2018-08-23T21:25:03.053Z,77.2
2018-08-23T21:30:03.372Z,77.9
2018-08-23T21:35:12.836Z,79.6
2018-08-23T21:40:07.697Z,78.7
2018-08-23T21:45:05.648Z,78.6
2018-08-23T21:50:03.046Z,78.5
2018-08-23T21:55:05.916Z,78.7
2018-08-23T22:00:05.860Z,78.9
2018-08-23T22:05:07.764Z,78.1
2018-08-23T22:10:10.167Z,78.3
2018-08-23T22:15:13.177Z,79.7
2018-08-23T22:20:05.123Z,80.3
2018-08-23T22:25:02.902Z,80.3
2018-08-23T22:30:05.746Z,80
2018-08-23T22:35:05.128Z,80.2
2018-08-23T22:40:02.972Z,81
2018-08-23T22:45:02.634Z,81
2018-08-23T22:50:07.810Z,80.9
2018-08-23T22:55:03.168Z,81
2018-08-23T23:00:12.997Z,82.1
2018-08-23T23:05:03.363Z,82.1
2018-08-23T23:10:06.144Z,84.1
2018-08-23T23:15:07.973Z,85.7
2018-08-23T23:20:08.057Z,87.5
2018-08-23T23:25:03.279Z,87.5
2018-08-23T23:30:08.344Z,88.7
2018-08-23T23:35:05.141Z,90
2018-08-23T23:40:05.443Z,90.4
2018-08-23T23:45:03.403Z,90.4
2018-08-23T23:50:02.754Z,90.8
2018-08-23T23:55:05.720Z,91.3
